Airfield :
LOGIN :

Register | Disclaimer

   EN    FR    IT 

 










Legend :    VFR   Marginal VFR   IFR   Intensive IFR   Very Intensive IFR
Visi :
Ceiling :
>= 8 km
>= 3000ft
5 to 8 km
1000 to 3000 ft
1500m to 5 km
500 to 1000 ft
800 to 1500m
200 to 500 ft
< 800m
< 200 ft
Symbols :   Thunderstorms  Fog  Heavy snow  Heavy precipitations  Wind > 20 kt
SIGMETs :     Misc.  Thunderstorms  Icing  Turbulence  Mountain Waves  Volcanic Ashes







- Airport Elevation : 82 ft
- IATA code : ALG


DAAG - Alger Houari Boumedienne

CURRENT METAR :
  • 210130Z 02003KT 350V090 9999 FEW026 23/18 Q1014

EXPIRED METARs :
  • 210100Z VRB02KT 9999 FEW026 24/18 Q1014
  • 210030Z 35003KT 290V010 9999 FEW026 25/18 Q1014
  • 210000Z 05003KT 360V080 9999 FEW026 SCT100 26/18 Q1014
  • 202330Z 02005KT 9999 FEW026 SCT100 26/18 Q1014
  • 202300Z VRB02KT 9999 FEW026 SCT100 26/18 Q1014

TAF TAF DAAG
Valid from the 21 at 00:00 until the 22 at 00:00 UTC


202300Z 2100/2124 VRB02KT 9999 FEW026 BKN100
PROB30
TEMPO 2100/2105 FEW026TCU FEW030CB
BECMG 2110/2113 04012KT
PROB40
TEMPO 2110/2118 FEW023CB
No reported NOTAMs for that airfield.
1 SIGMET reported for the Alger FIR (DAAA) :
 
Embedded thunderstorms
DAAA SIGMET 7 VALID 202200/202400 DAMM
DAAA ALGER FIR EMBD TS OBS S OF LINE N2250 E00105 - N2153 E00711 TOP FL340 MOV N NC=



MET'MAP, your aeronautical weather chart ! - Copyright ORBIFLY December 2007 - Disclaimer

ORBIFLY MET'MAP TEAM :

Programming & Development : Alexandra Zaïnal
Concept & Development : Baudouin d'Aumeries
Co-Development & Prog : Marc-Olivier Méhu
Technical & hardware support : Manuel Goepfert

Contact : metmap@orbifly.com




SOURCES & CREDITS :

   NOAA